sensor_id;sensor_type;location;lat;lon;timestamp;P1;durP1;ratioP1;P2;durP2;ratioP2
22967;SDS011;11650;48.106;-1.696;2023-05-10T00:00:14;21.97;;;3.17;;
22967;SDS011;11650;48.106;-1.696;2023-05-10T00:02:40;17.40;;;3.17;;
22967;SDS011;11650;48.106;-1.696;2023-05-10T00:05:06;14.97;;;3.10;;
22967;SDS011;11650;48.106;-1.696;2023-05-10T00:07:32;16.73;;;3.30;;
22967;SDS011;11650;48.106;-1.696;2023-05-10T00:09:58;17.77;;;2.83;;
22967;SDS011;11650;48.106;-1.696;2023-05-10T00:12:23;19.67;;;2.97;;
22967;SDS011;11650;48.106;-1.696;2023-05-10T00:14:49;19.70;;;3.37;;
22967;SDS011;11650;48.106;-1.696;2023-05-10T00:17:15;20.23;;;3.33;;
22967;SDS011;11650;48.106;-1.696;2023-05-10T00:19:40;20.20;;;3.73;;
22967;SDS011;11650;48.106;-1.696;2023-05-10T00:22:06;18.40;;;3.03;;
22967;SDS011;11650;48.106;-1.696;2023-05-10T00:24:31;21.93;;;3.00;;
22967;SDS011;11650;48.106;-1.696;2023-05-10T00:26:57;20.87;;;3.07;;
22967;SDS011;11650;48.106;-1.696;2023-05-10T00:29:23;19.73;;;3.50;;
22967;SDS011;11650;48.106;-1.696;2023-05-10T00:31:49;26.77;;;3.27;;
22967;SDS011;11650;48.106;-1.696;2023-05-10T00:34:14;25.47;;;3.23;;
22967;SDS011;11650;48.106;-1.696;2023-05-10T00:36:40;27.00;;;4.27;;
22967;SDS011;11650;48.106;-1.696;2023-05-10T00:39:05;19.20;;;2.97;;
22967;SDS011;11650;48.106;-1.696;2023-05-10T00:41:31;20.73;;;3.70;;
22967;SDS011;11650;48.106;-1.696;2023-05-10T00:43:57;19.50;;;3.07;;
22967;SDS011;11650;48.106;-1.696;2023-05-10T00:46:24;17.47;;;2.63;;
22967;SDS011;11650;48.106;-1.696;2023-05-10T00:48:50;19.10;;;3.17;;
22967;SDS011;11650;48.106;-1.696;2023-05-10T00:51:16;20.57;;;3.30;;
22967;SDS011;11650;48.106;-1.696;2023-05-10T00:53:42;19.50;;;3.13;;
22967;SDS011;11650;48.106;-1.696;2023-05-10T00:56:10;25.13;;;3.50;;
22967;SDS011;11650;48.106;-1.696;2023-05-10T00:58:37;24.57;;;3.40;;
22967;SDS011;11650;48.106;-1.696;2023-05-10T01:01:03;20.17;;;3.40;;
22967;SDS011;11650;48.106;-1.696;2023-05-10T01:03:30;20.77;;;3.43;;
22967;SDS011;11650;48.106;-1.696;2023-05-10T01:05:57;19.80;;;3.40;;
22967;SDS011;11650;48.106;-1.696;2023-05-10T01:08:23;20.80;;;3.80;;
22967;SDS011;11650;48.106;-1.696;2023-05-10T01:10:49;18.23;;;3.60;;
22967;SDS011;11650;48.106;-1.696;2023-05-10T01:13:22;18.57;;;3.10;;
22967;SDS011;11650;48.106;-1.696;2023-05-10T01:15:57;21.83;;;3.93;;
22967;SDS011;11650;48.106;-1.696;2023-05-10T01:18:24;21.30;;;3.13;;
22967;SDS011;11650;48.106;-1.696;2023-05-10T01:20:55;16.03;;;3.40;;
22967;SDS011;11650;48.106;-1.696;2023-05-10T01:34:37;15.40;;;3.27;;
22967;SDS011;11650;48.106;-1.696;2023-05-10T01:37:25;21.87;;;3.47;;
22967;SDS011;11650;48.106;-1.696;2023-05-10T01:40:00;22.90;;;3.63;;
22967;SDS011;11650;48.106;-1.696;2023-05-10T01:42:33;19.20;;;3.87;;
22967;SDS011;11650;48.106;-1.696;2023-05-10T01:47:44;21.70;;;3.70;;
22967;SDS011;11650;48.106;-1.696;2023-05-10T01:50:24;19.83;;;3.77;;
22967;SDS011;11650;48.106;-1.696;2023-05-10T01:52:54;20.30;;;3.50;;
22967;SDS011;11650;48.106;-1.696;2023-05-10T01:55:23;20.97;;;3.60;;
22967;SDS011;11650;48.106;-1.696;2023-05-10T01:58:02;25.10;;;4.13;;
22967;SDS011;11650;48.106;-1.696;2023-05-10T02:00:31;24.47;;;4.17;;
22967;SDS011;11650;48.106;-1.696;2023-05-10T02:02:58;27.60;;;4.70;;
22967;SDS011;11650;48.106;-1.696;2023-05-10T02:05:26;26.70;;;4.23;;
22967;SDS011;11650;48.106;-1.696;2023-05-10T02:07:55;23.17;;;4.03;;
22967;SDS011;11650;48.106;-1.696;2023-05-10T02:10:23;29.33;;;4.43;;
22967;SDS011;11650;48.106;-1.696;2023-05-10T02:12:49;25.60;;;4.53;;
22967;SDS011;11650;48.106;-1.696;2023-05-10T02:15:22;26.93;;;4.77;;
22967;SDS011;11650;48.106;-1.696;2023-05-10T02:17:49;32.07;;;4.57;;
22967;SDS011;11650;48.106;-1.696;2023-05-10T02:20:17;22.63;;;3.83;;
22967;SDS011;11650;48.106;-1.696;2023-05-10T02:22:45;28.57;;;3.90;;
22967;SDS011;11650;48.106;-1.696;2023-05-10T02:25:13;26.00;;;4.30;;
22967;SDS011;11650;48.106;-1.696;2023-05-10T02:27:40;28.90;;;5.10;;
22967;SDS011;11650;48.106;-1.696;2023-05-10T02:30:08;23.53;;;3.87;;
22967;SDS011;11650;48.106;-1.696;2023-05-10T02:32:35;29.30;;;4.50;;
22967;SDS011;11650;48.106;-1.696;2023-05-10T02:35:02;28.90;;;4.33;;
22967;SDS011;11650;48.106;-1.696;2023-05-10T02:37:30;32.67;;;4.30;;
22967;SDS011;11650;48.106;-1.696;2023-05-10T02:39:57;26.87;;;4.50;;
22967;SDS011;11650;48.106;-1.696;2023-05-10T02:42:27;26.03;;;4.67;;
22967;SDS011;11650;48.106;-1.696;2023-05-10T02:44:59;31.20;;;5.10;;
22967;SDS011;11650;48.106;-1.696;2023-05-10T02:47:26;30.77;;;4.70;;
22967;SDS011;11650;48.106;-1.696;2023-05-10T02:49:52;28.47;;;4.60;;
22967;SDS011;11650;48.106;-1.696;2023-05-10T02:52:23;25.03;;;4.60;;
22967;SDS011;11650;48.106;-1.696;2023-05-10T02:54:54;30.70;;;4.70;;
22967;SDS011;11650;48.106;-1.696;2023-05-10T02:57:26;24.90;;;4.33;;
22967;SDS011;11650;48.106;-1.696;2023-05-10T02:59:54;28.47;;;4.67;;
22967;SDS011;11650;48.106;-1.696;2023-05-10T03:02:20;33.67;;;4.97;;
22967;SDS011;11650;48.106;-1.696;2023-05-10T03:04:46;25.50;;;4.43;;
22967;SDS011;11650;48.106;-1.696;2023-05-10T03:07:12;39.07;;;5.03;;
22967;SDS011;11650;48.106;-1.696;2023-05-10T03:09:38;23.90;;;4.53;;
22967;SDS011;11650;48.106;-1.696;2023-05-10T03:12:15;28.40;;;4.27;;
22967;SDS011;11650;48.106;-1.696;2023-05-10T03:20:10;30.83;;;4.73;;
22967;SDS011;11650;48.106;-1.696;2023-05-10T03:22:38;33.67;;;5.23;;
22967;SDS011;11650;48.106;-1.696;2023-05-10T03:25:10;35.60;;;4.77;;
22967;SDS011;11650;48.106;-1.696;2023-05-10T03:27:36;33.17;;;4.73;;
22967;SDS011;11650;48.106;-1.696;2023-05-10T03:30:05;28.93;;;4.43;;
22967;SDS011;11650;48.106;-1.696;2023-05-10T03:32:33;28.17;;;4.73;;
22967;SDS011;11650;48.106;-1.696;2023-05-10T03:34:59;25.33;;;4.90;;
22967;SDS011;11650;48.106;-1.696;2023-05-10T03:37:25;33.67;;;4.80;;
22967;SDS011;11650;48.106;-1.696;2023-05-10T03:39:51;24.40;;;4.10;;
22967;SDS011;11650;48.106;-1.696;2023-05-10T03:42:16;28.33;;;4.33;;
22967;SDS011;11650;48.106;-1.696;2023-05-10T03:44:42;27.77;;;4.80;;
22967;SDS011;11650;48.106;-1.696;2023-05-10T03:47:08;27.93;;;4.70;;
22967;SDS011;11650;48.106;-1.696;2023-05-10T03:49:34;36.13;;;5.03;;
22967;SDS011;11650;48.106;-1.696;2023-05-10T03:51:59;27.93;;;4.93;;
22967;SDS011;11650;48.106;-1.696;2023-05-10T03:54:25;28.70;;;4.70;;
22967;SDS011;11650;48.106;-1.696;2023-05-10T03:56:51;28.13;;;4.60;;
22967;SDS011;11650;48.106;-1.696;2023-05-10T03:59:16;39.50;;;4.53;;
22967;SDS011;11650;48.106;-1.696;2023-05-10T04:01:42;37.10;;;5.23;;
22967;SDS011;11650;48.106;-1.696;2023-05-10T04:04:08;33.40;;;4.60;;
22967;SDS011;11650;48.106;-1.696;2023-05-10T04:06:33;36.53;;;4.67;;
22967;SDS011;11650;48.106;-1.696;2023-05-10T04:09:00;23.90;;;4.53;;
22967;SDS011;11650;48.106;-1.696;2023-05-10T04:11:28;31.43;;;4.53;;
22967;SDS011;11650;48.106;-1.696;2023-05-10T04:13:54;33.67;;;4.83;;
22967;SDS011;11650;48.106;-1.696;2023-05-10T04:16:20;34.33;;;5.07;;
22967;SDS011;11650;48.106;-1.696;2023-05-10T04:18:45;34.53;;;4.63;;
22967;SDS011;11650;48.106;-1.696;2023-05-10T04:21:11;30.30;;;4.23;;
22967;SDS011;11650;48.106;-1.696;2023-05-10T04:23:38;26.97;;;4.80;;
22967;SDS011;11650;48.106;-1.696;2023-05-10T04:26:04;38.23;;;5.57;;
22967;SDS011;11650;48.106;-1.696;2023-05-10T04:28:29;27.93;;;4.60;;
22967;SDS011;11650;48.106;-1.696;2023-05-10T04:31:08;34.33;;;5.07;;
22967;SDS011;11650;48.106;-1.696;2023-05-10T04:33:34;26.90;;;4.90;;
22967;SDS011;11650;48.106;-1.696;2023-05-10T04:36:01;29.27;;;5.17;;
22967;SDS011;11650;48.106;-1.696;2023-05-10T04:38:28;28.63;;;3.73;;
22967;SDS011;11650;48.106;-1.696;2023-05-10T04:40:54;29.57;;;5.10;;
22967;SDS011;11650;48.106;-1.696;2023-05-10T04:43:19;23.53;;;4.33;;
22967;SDS011;11650;48.106;-1.696;2023-05-10T04:45:45;28.93;;;5.17;;
22967;SDS011;11650;48.106;-1.696;2023-05-10T04:48:11;26.30;;;4.13;;
22967;SDS011;11650;48.106;-1.696;2023-05-10T04:50:37;27.47;;;5.03;;
22967;SDS011;11650;48.106;-1.696;2023-05-10T04:53:03;23.63;;;4.30;;
22967;SDS011;11650;48.106;-1.696;2023-05-10T04:55:29;24.77;;;4.47;;
22967;SDS011;11650;48.106;-1.696;2023-05-10T04:57:55;32.93;;;5.10;;
22967;SDS011;11650;48.106;-1.696;2023-05-10T05:00:22;25.70;;;4.57;;
22967;SDS011;11650;48.106;-1.696;2023-05-10T05:02:48;29.23;;;4.37;;
22967;SDS011;11650;48.106;-1.696;2023-05-10T05:05:14;26.60;;;5.10;;
22967;SDS011;11650;48.106;-1.696;2023-05-10T05:07:39;25.73;;;4.43;;
22967;SDS011;11650;48.106;-1.696;2023-05-10T05:10:08;29.27;;;4.47;;
22967;SDS011;11650;48.106;-1.696;2023-05-10T05:12:34;32.00;;;5.30;;
22967;SDS011;11650;48.106;-1.696;2023-05-10T05:15:00;27.00;;;5.00;;
22967;SDS011;11650;48.106;-1.696;2023-05-10T05:17:26;23.93;;;4.03;;
22967;SDS011;11650;48.106;-1.696;2023-05-10T05:19:52;33.43;;;4.73;;
22967;SDS011;11650;48.106;-1.696;2023-05-10T05:22:19;33.53;;;4.60;;
22967;SDS011;11650;48.106;-1.696;2023-05-10T05:24:51;27.90;;;3.93;;
22967;SDS011;11650;48.106;-1.696;2023-05-10T05:27:17;30.93;;;5.40;;
22967;SDS011;11650;48.106;-1.696;2023-05-10T05:29:43;34.70;;;4.47;;
22967;SDS011;11650;48.106;-1.696;2023-05-10T05:32:08;29.30;;;4.83;;
22967;SDS011;11650;48.106;-1.696;2023-05-10T05:34:34;27.80;;;5.00;;
22967;SDS011;11650;48.106;-1.696;2023-05-10T05:36:59;27.33;;;5.00;;
22967;SDS011;11650;48.106;-1.696;2023-05-10T05:39:25;36.17;;;5.63;;
22967;SDS011;11650;48.106;-1.696;2023-05-10T05:41:51;16.73;;;3.93;;
22967;SDS011;11650;48.106;-1.696;2023-05-10T05:44:16;30.83;;;4.60;;
22967;SDS011;11650;48.106;-1.696;2023-05-10T05:46:42;31.10;;;4.67;;
22967;SDS011;11650;48.106;-1.696;2023-05-10T05:49:07;25.10;;;4.10;;
22967;SDS011;11650;48.106;-1.696;2023-05-10T05:51:33;23.60;;;3.93;;
22967;SDS011;11650;48.106;-1.696;2023-05-10T05:54:00;34.80;;;4.53;;
22967;SDS011;11650;48.106;-1.696;2023-05-10T05:56:26;29.50;;;4.53;;
22967;SDS011;11650;48.106;-1.696;2023-05-10T05:58:52;27.80;;;4.00;;
22967;SDS011;11650;48.106;-1.696;2023-05-10T06:01:17;29.23;;;4.50;;
22967;SDS011;11650;48.106;-1.696;2023-05-10T06:03:43;24.90;;;5.17;;
22967;SDS011;11650;48.106;-1.696;2023-05-10T06:06:09;28.43;;;4.60;;
22967;SDS011;11650;48.106;-1.696;2023-05-10T06:08:35;23.93;;;4.57;;
22967;SDS011;11650;48.106;-1.696;2023-05-10T06:11:00;27.23;;;4.67;;
22967;SDS011;11650;48.106;-1.696;2023-05-10T06:13:26;25.40;;;4.63;;
22967;SDS011;11650;48.106;-1.696;2023-05-10T06:15:57;28.30;;;4.77;;
22967;SDS011;11650;48.106;-1.696;2023-05-10T06:18:23;29.87;;;4.60;;
22967;SDS011;11650;48.106;-1.696;2023-05-10T06:20:49;28.40;;;5.23;;
22967;SDS011;11650;48.106;-1.696;2023-05-10T06:23:15;30.73;;;5.13;;
22967;SDS011;11650;48.106;-1.696;2023-05-10T06:25:41;29.40;;;5.00;;
22967;SDS011;11650;48.106;-1.696;2023-05-10T06:28:07;27.63;;;5.00;;
22967;SDS011;11650;48.106;-1.696;2023-05-10T06:30:32;20.40;;;3.87;;
22967;SDS011;11650;48.106;-1.696;2023-05-10T06:32:58;22.57;;;4.83;;
22967;SDS011;11650;48.106;-1.696;2023-05-10T06:35:24;22.07;;;3.33;;
22967;SDS011;11650;48.106;-1.696;2023-05-10T06:37:49;23.63;;;4.37;;
22967;SDS011;11650;48.106;-1.696;2023-05-10T06:40:16;27.43;;;5.07;;
22967;SDS011;11650;48.106;-1.696;2023-05-10T06:42:42;25.27;;;4.70;;
22967;SDS011;11650;48.106;-1.696;2023-05-10T06:45:08;24.03;;;3.80;;
22967;SDS011;11650;48.106;-1.696;2023-05-10T06:47:34;25.33;;;4.37;;
22967;SDS011;11650;48.106;-1.696;2023-05-10T06:50:00;22.10;;;4.40;;
22967;SDS011;11650;48.106;-1.696;2023-05-10T06:52:26;26.23;;;4.67;;
22967;SDS011;11650;48.106;-1.696;2023-05-10T06:54:51;26.90;;;4.87;;
22967;SDS011;11650;48.106;-1.696;2023-05-10T06:57:17;29.87;;;5.27;;
22967;SDS011;11650;48.106;-1.696;2023-05-10T06:59:43;29.07;;;5.00;;
22967;SDS011;11650;48.106;-1.696;2023-05-10T07:02:08;21.70;;;3.87;;
22967;SDS011;11650;48.106;-1.696;2023-05-10T07:04:34;27.60;;;4.37;;
22967;SDS011;11650;48.106;-1.696;2023-05-10T07:07:00;31.17;;;4.37;;
22967;SDS011;11650;48.106;-1.696;2023-05-10T07:09:25;22.77;;;3.83;;
22967;SDS011;11650;48.106;-1.696;2023-05-10T07:11:51;32.20;;;4.50;;
22967;SDS011;11650;48.106;-1.696;2023-05-10T07:14:17;27.97;;;4.57;;
22967;SDS011;11650;48.106;-1.696;2023-05-10T07:16:42;22.40;;;3.90;;
22967;SDS011;11650;48.106;-1.696;2023-05-10T07:19:09;28.13;;;4.40;;
22967;SDS011;11650;48.106;-1.696;2023-05-10T07:21:35;30.13;;;4.20;;
22967;SDS011;11650;48.106;-1.696;2023-05-10T07:24:01;28.70;;;4.90;;
22967;SDS011;11650;48.106;-1.696;2023-05-10T07:26:27;24.60;;;3.80;;
22967;SDS011;11650;48.106;-1.696;2023-05-10T07:28:53;34.43;;;4.23;;
22967;SDS011;11650;48.106;-1.696;2023-05-10T07:31:19;26.13;;;4.70;;
22967;SDS011;11650;48.106;-1.696;2023-05-10T07:33:45;24.90;;;4.50;;
22967;SDS011;11650;48.106;-1.696;2023-05-10T07:36:11;20.33;;;3.63;;
22967;SDS011;11650;48.106;-1.696;2023-05-10T07:38:36;30.10;;;3.83;;
22967;SDS011;11650;48.106;-1.696;2023-05-10T07:41:02;19.67;;;3.13;;
22967;SDS011;11650;48.106;-1.696;2023-05-10T07:43:27;26.40;;;4.47;;
22967;SDS011;11650;48.106;-1.696;2023-05-10T07:45:53;25.90;;;4.07;;
22967;SDS011;11650;48.106;-1.696;2023-05-10T07:48:19;18.40;;;3.60;;
22967;SDS011;11650;48.106;-1.696;2023-05-10T07:50:44;23.00;;;3.53;;
22967;SDS011;11650;48.106;-1.696;2023-05-10T07:53:10;21.20;;;3.77;;
22967;SDS011;11650;48.106;-1.696;2023-05-10T07:55:37;21.97;;;3.70;;
22967;SDS011;11650;48.106;-1.696;2023-05-10T07:58:02;25.17;;;4.03;;
22967;SDS011;11650;48.106;-1.696;2023-05-10T08:00:28;23.27;;;3.83;;
22967;SDS011;11650;48.106;-1.696;2023-05-10T08:02:54;27.00;;;4.00;;
22967;SDS011;11650;48.106;-1.696;2023-05-10T08:05:19;20.63;;;4.37;;
22967;SDS011;11650;48.106;-1.696;2023-05-10T08:07:45;21.33;;;4.30;;
22967;SDS011;11650;48.106;-1.696;2023-05-10T08:10:11;23.93;;;3.90;;
22967;SDS011;11650;48.106;-1.696;2023-05-10T08:12:36;21.13;;;3.83;;
22967;SDS011;11650;48.106;-1.696;2023-05-10T08:15:03;25.87;;;4.33;;
22967;SDS011;11650;48.106;-1.696;2023-05-10T08:17:29;18.27;;;4.07;;
22967;SDS011;11650;48.106;-1.696;2023-05-10T08:19:55;19.70;;;3.97;;
22967;SDS011;11650;48.106;-1.696;2023-05-10T08:22:20;20.43;;;3.47;;
22967;SDS011;11650;48.106;-1.696;2023-05-10T08:24:47;14.80;;;3.17;;
22967;SDS011;11650;48.106;-1.696;2023-05-10T08:27:13;14.57;;;3.03;;
22967;SDS011;11650;48.106;-1.696;2023-05-10T08:29:38;18.47;;;3.57;;
22967;SDS011;11650;48.106;-1.696;2023-05-10T08:32:04;18.63;;;3.60;;
22967;SDS011;11650;48.106;-1.696;2023-05-10T08:34:30;22.80;;;3.50;;
22967;SDS011;11650;48.106;-1.696;2023-05-10T08:36:56;13.13;;;2.93;;
22967;SDS011;11650;48.106;-1.696;2023-05-10T08:39:22;16.97;;;3.63;;
22967;SDS011;11650;48.106;-1.696;2023-05-10T08:41:48;14.87;;;3.30;;
22967;SDS011;11650;48.106;-1.696;2023-05-10T08:44:16;16.73;;;3.80;;
22967;SDS011;11650;48.106;-1.696;2023-05-10T08:46:44;12.23;;;2.87;;
22967;SDS011;11650;48.106;-1.696;2023-05-10T08:49:13;18.20;;;3.40;;
22967;SDS011;11650;48.106;-1.696;2023-05-10T08:51:40;15.67;;;3.30;;
22967;SDS011;11650;48.106;-1.696;2023-05-10T08:54:07;13.80;;;3.10;;
22967;SDS011;11650;48.106;-1.696;2023-05-10T08:56:33;18.27;;;3.07;;
22967;SDS011;11650;48.106;-1.696;2023-05-10T08:58:58;11.43;;;2.60;;
22967;SDS011;11650;48.106;-1.696;2023-05-10T09:01:24;15.53;;;3.13;;
22967;SDS011;11650;48.106;-1.696;2023-05-10T09:03:51;14.03;;;3.40;;
22967;SDS011;11650;48.106;-1.696;2023-05-10T09:06:17;15.77;;;3.10;;
22967;SDS011;11650;48.106;-1.696;2023-05-10T09:08:44;15.03;;;2.90;;
22967;SDS011;11650;48.106;-1.696;2023-05-10T09:11:11;16.87;;;2.90;;
22967;SDS011;11650;48.106;-1.696;2023-05-10T09:13:37;12.93;;;3.50;;
22967;SDS011;11650;48.106;-1.696;2023-05-10T09:16:03;14.23;;;2.70;;
22967;SDS011;11650;48.106;-1.696;2023-05-10T09:18:30;17.70;;;3.33;;
22967;SDS011;11650;48.106;-1.696;2023-05-10T09:20:55;11.27;;;3.30;;
22967;SDS011;11650;48.106;-1.696;2023-05-10T09:23:21;17.20;;;4.10;;
22967;SDS011;11650;48.106;-1.696;2023-05-10T09:25:48;17.83;;;3.73;;
22967;SDS011;11650;48.106;-1.696;2023-05-10T09:28:31;17.60;;;3.80;;
22967;SDS011;11650;48.106;-1.696;2023-05-10T09:30:58;14.63;;;3.23;;
22967;SDS011;11650;48.106;-1.696;2023-05-10T09:33:23;14.27;;;2.77;;
22967;SDS011;11650;48.106;-1.696;2023-05-10T09:35:49;14.80;;;3.57;;
22967;SDS011;11650;48.106;-1.696;2023-05-10T09:38:17;20.23;;;5.00;;
22967;SDS011;11650;48.106;-1.696;2023-05-10T09:40:42;13.47;;;4.33;;
22967;SDS011;11650;48.106;-1.696;2023-05-10T09:43:19;14.80;;;3.67;;
22967;SDS011;11650;48.106;-1.696;2023-05-10T09:45:45;16.43;;;3.50;;
22967;SDS011;11650;48.106;-1.696;2023-05-10T09:48:14;19.37;;;3.60;;
22967;SDS011;11650;48.106;-1.696;2023-05-10T09:50:40;17.83;;;3.90;;
22967;SDS011;11650;48.106;-1.696;2023-05-10T09:53:06;17.20;;;3.50;;
22967;SDS011;11650;48.106;-1.696;2023-05-10T09:58:05;18.20;;;3.73;;
22967;SDS011;11650;48.106;-1.696;2023-05-10T10:00:39;12.67;;;3.10;;
22967;SDS011;11650;48.106;-1.696;2023-05-10T10:03:06;16.63;;;3.47;;
22967;SDS011;11650;48.106;-1.696;2023-05-10T10:05:36;14.17;;;3.30;;
22967;SDS011;11650;48.106;-1.696;2023-05-10T10:08:06;18.17;;;3.40;;
22967;SDS011;11650;48.106;-1.696;2023-05-10T10:10:33;12.77;;;3.00;;
22967;SDS011;11650;48.106;-1.696;2023-05-10T10:12:59;16.37;;;3.23;;
22967;SDS011;11650;48.106;-1.696;2023-05-10T10:15:25;13.03;;;3.30;;
22967;SDS011;11650;48.106;-1.696;2023-05-10T10:17:52;18.77;;;4.13;;
22967;SDS011;11650;48.106;-1.696;2023-05-10T10:20:18;14.77;;;3.50;;
22967;SDS011;11650;48.106;-1.696;2023-05-10T10:22:45;12.27;;;2.93;;
22967;SDS011;11650;48.106;-1.696;2023-05-10T10:25:11;17.03;;;3.30;;
22967;SDS011;11650;48.106;-1.696;2023-05-10T10:35:45;15.17;;;3.17;;
22967;SDS011;11650;48.106;-1.696;2023-05-10T10:38:14;13.63;;;3.37;;
22967;SDS011;11650;48.106;-1.696;2023-05-10T10:40:41;12.00;;;3.20;;
22967;SDS011;11650;48.106;-1.696;2023-05-10T10:43:26;11.47;;;3.53;;
22967;SDS011;11650;48.106;-1.696;2023-05-10T10:48:49;7.33;;;2.20;;
22967;SDS011;11650;48.106;-1.696;2023-05-10T10:51:35;8.80;;;2.40;;
22967;SDS011;11650;48.106;-1.696;2023-05-10T10:54:11;11.50;;;2.80;;
22967;SDS011;11650;48.106;-1.696;2023-05-10T10:56:37;9.73;;;3.17;;
22967;SDS011;11650;48.106;-1.696;2023-05-10T10:59:03;9.27;;;2.40;;
22967;SDS011;11650;48.106;-1.696;2023-05-10T11:01:33;8.13;;;2.50;;
22967;SDS011;11650;48.106;-1.696;2023-05-10T11:06:30;5.80;;;1.67;;
22967;SDS011;11650;48.106;-1.696;2023-05-10T11:08:57;7.77;;;2.03;;
22967;SDS011;11650;48.106;-1.696;2023-05-10T11:11:23;6.33;;;1.90;;
22967;SDS011;11650;48.106;-1.696;2023-05-10T11:13:49;10.03;;;2.13;;
22967;SDS011;11650;48.106;-1.696;2023-05-10T11:19:18;6.63;;;1.93;;
22967;SDS011;11650;48.106;-1.696;2023-05-10T11:24:30;8.70;;;2.10;;
22967;SDS011;11650;48.106;-1.696;2023-05-10T11:26:56;7.03;;;1.63;;
22967;SDS011;11650;48.106;-1.696;2023-05-10T11:29:22;7.90;;;2.10;;
22967;SDS011;11650;48.106;-1.696;2023-05-10T11:31:48;8.47;;;2.10;;
22967;SDS011;11650;48.106;-1.696;2023-05-10T11:34:24;5.80;;;1.93;;
22967;SDS011;11650;48.106;-1.696;2023-05-10T11:36:52;3.60;;;1.20;;
22967;SDS011;11650;48.106;-1.696;2023-05-10T11:39:19;4.80;;;1.30;;
22967;SDS011;11650;48.106;-1.696;2023-05-10T11:41:48;4.77;;;1.20;;
22967;SDS011;11650;48.106;-1.696;2023-05-10T11:44:14;3.10;;;1.00;;
22967;SDS011;11650;48.106;-1.696;2023-05-10T11:46:40;3.37;;;1.00;;
22967;SDS011;11650;48.106;-1.696;2023-05-10T11:49:06;3.67;;;1.23;;
22967;SDS011;11650;48.106;-1.696;2023-05-10T11:51:35;3.30;;;1.63;;
22967;SDS011;11650;48.106;-1.696;2023-05-10T11:54:02;3.57;;;1.33;;
22967;SDS011;11650;48.106;-1.696;2023-05-10T11:56:33;3.30;;;1.20;;
22967;SDS011;11650;48.106;-1.696;2023-05-10T11:58:58;5.13;;;1.60;;
22967;SDS011;11650;48.106;-1.696;2023-05-10T12:01:27;6.63;;;2.00;;
22967;SDS011;11650;48.106;-1.696;2023-05-10T12:03:54;6.77;;;2.27;;
22967;SDS011;11650;48.106;-1.696;2023-05-10T12:06:25;6.37;;;1.70;;
22967;SDS011;11650;48.106;-1.696;2023-05-10T12:08:53;7.47;;;1.60;;
22967;SDS011;11650;48.106;-1.696;2023-05-10T12:11:19;5.47;;;1.43;;
22967;SDS011;11650;48.106;-1.696;2023-05-10T12:13:46;5.57;;;1.67;;
22967;SDS011;11650;48.106;-1.696;2023-05-10T12:16:16;5.87;;;1.67;;
22967;SDS011;11650;48.106;-1.696;2023-05-10T12:18:43;4.93;;;1.40;;
22967;SDS011;11650;48.106;-1.696;2023-05-10T12:21:11;6.17;;;1.50;;
22967;SDS011;11650;48.106;-1.696;2023-05-10T12:23:38;5.20;;;1.50;;
22967;SDS011;11650;48.106;-1.696;2023-05-10T12:26:04;4.70;;;1.40;;
22967;SDS011;11650;48.106;-1.696;2023-05-10T12:28:31;7.27;;;1.67;;
22967;SDS011;11650;48.106;-1.696;2023-05-10T12:30:58;9.30;;;2.07;;
22967;SDS011;11650;48.106;-1.696;2023-05-10T12:33:24;8.27;;;2.00;;
22967;SDS011;11650;48.106;-1.696;2023-05-10T12:35:51;6.40;;;1.83;;
22967;SDS011;11650;48.106;-1.696;2023-05-10T12:38:34;9.87;;;2.60;;
22967;SDS011;11650;48.106;-1.696;2023-05-10T12:41:03;8.40;;;2.70;;
22967;SDS011;11650;48.106;-1.696;2023-05-10T12:43:31;9.27;;;2.70;;
22967;SDS011;11650;48.106;-1.696;2023-05-10T12:45:57;13.70;;;3.30;;
22967;SDS011;11650;48.106;-1.696;2023-05-10T12:48:23;8.27;;;2.40;;
22967;SDS011;11650;48.106;-1.696;2023-05-10T12:50:48;14.10;;;3.03;;
22967;SDS011;11650;48.106;-1.696;2023-05-10T12:53:15;9.00;;;2.93;;
22967;SDS011;11650;48.106;-1.696;2023-05-10T12:55:41;12.17;;;2.70;;
22967;SDS011;11650;48.106;-1.696;2023-05-10T12:58:07;11.20;;;2.80;;
22967;SDS011;11650;48.106;-1.696;2023-05-10T13:00:33;8.33;;;2.37;;
22967;SDS011;11650;48.106;-1.696;2023-05-10T13:02:58;10.10;;;2.63;;
22967;SDS011;11650;48.106;-1.696;2023-05-10T13:05:24;9.87;;;2.80;;
22967;SDS011;11650;48.106;-1.696;2023-05-10T13:07:50;5.73;;;2.03;;
22967;SDS011;11650;48.106;-1.696;2023-05-10T13:10:16;8.77;;;2.00;;
22967;SDS011;11650;48.106;-1.696;2023-05-10T13:12:42;11.67;;;2.20;;
22967;SDS011;11650;48.106;-1.696;2023-05-10T13:15:07;8.53;;;1.97;;
22967;SDS011;11650;48.106;-1.696;2023-05-10T13:17:33;5.50;;;2.33;;
22967;SDS011;11650;48.106;-1.696;2023-05-10T13:19:59;9.53;;;2.30;;
22967;SDS011;11650;48.106;-1.696;2023-05-10T13:22:25;10.00;;;2.33;;
22967;SDS011;11650;48.106;-1.696;2023-05-10T13:24:50;7.57;;;2.17;;
22967;SDS011;11650;48.106;-1.696;2023-05-10T13:27:16;6.17;;;2.00;;
22967;SDS011;11650;48.106;-1.696;2023-05-10T13:29:41;5.97;;;1.70;;
22967;SDS011;11650;48.106;-1.696;2023-05-10T13:32:07;7.40;;;1.70;;
22967;SDS011;11650;48.106;-1.696;2023-05-10T13:34:33;6.40;;;1.97;;
22967;SDS011;11650;48.106;-1.696;2023-05-10T13:37:00;3.33;;;1.50;;
22967;SDS011;11650;48.106;-1.696;2023-05-10T13:39:26;7.90;;;1.70;;
22967;SDS011;11650;48.106;-1.696;2023-05-10T13:41:52;5.70;;;1.60;;
22967;SDS011;11650;48.106;-1.696;2023-05-10T13:44:17;4.67;;;1.60;;
22967;SDS011;11650;48.106;-1.696;2023-05-10T13:46:45;7.80;;;1.50;;
22967;SDS011;11650;48.106;-1.696;2023-05-10T13:49:11;7.73;;;1.43;;
22967;SDS011;11650;48.106;-1.696;2023-05-10T13:51:36;8.10;;;1.40;;
22967;SDS011;11650;48.106;-1.696;2023-05-10T13:54:02;7.20;;;1.50;;
22967;SDS011;11650;48.106;-1.696;2023-05-10T13:56:28;8.47;;;2.00;;
22967;SDS011;11650;48.106;-1.696;2023-05-10T13:58:55;7.63;;;1.67;;
22967;SDS011;11650;48.106;-1.696;2023-05-10T14:01:22;6.60;;;1.53;;
22967;SDS011;11650;48.106;-1.696;2023-05-10T14:03:48;8.03;;;1.73;;
22967;SDS011;11650;48.106;-1.696;2023-05-10T14:06:14;6.10;;;1.73;;
22967;SDS011;11650;48.106;-1.696;2023-05-10T14:08:39;6.23;;;1.87;;
22967;SDS011;11650;48.106;-1.696;2023-05-10T14:11:05;9.17;;;2.20;;
22967;SDS011;11650;48.106;-1.696;2023-05-10T14:13:31;9.33;;;2.00;;
22967;SDS011;11650;48.106;-1.696;2023-05-10T14:15:56;12.30;;;1.80;;
22967;SDS011;11650;48.106;-1.696;2023-05-10T14:18:25;8.70;;;1.93;;
22967;SDS011;11650;48.106;-1.696;2023-05-10T14:20:51;9.37;;;1.67;;
22967;SDS011;11650;48.106;-1.696;2023-05-10T14:23:17;7.67;;;1.60;;
22967;SDS011;11650;48.106;-1.696;2023-05-10T14:25:44;5.43;;;1.50;;
22967;SDS011;11650;48.106;-1.696;2023-05-10T14:28:10;5.40;;;1.60;;
22967;SDS011;11650;48.106;-1.696;2023-05-10T14:30:37;11.70;;;1.80;;
22967;SDS011;11650;48.106;-1.696;2023-05-10T14:33:02;6.00;;;1.30;;
22967;SDS011;11650;48.106;-1.696;2023-05-10T14:35:28;7.67;;;2.03;;
22967;SDS011;11650;48.106;-1.696;2023-05-10T14:37:56;5.23;;;1.50;;
22967;SDS011;11650;48.106;-1.696;2023-05-10T14:40:22;8.37;;;1.73;;
22967;SDS011;11650;48.106;-1.696;2023-05-10T14:42:47;4.47;;;1.40;;
22967;SDS011;11650;48.106;-1.696;2023-05-10T14:45:13;6.43;;;1.80;;
22967;SDS011;11650;48.106;-1.696;2023-05-10T14:47:39;9.10;;;2.00;;
22967;SDS011;11650;48.106;-1.696;2023-05-10T14:50:05;10.63;;;1.90;;
22967;SDS011;11650;48.106;-1.696;2023-05-10T14:52:30;8.63;;;1.93;;
22967;SDS011;11650;48.106;-1.696;2023-05-10T14:54:56;8.57;;;1.70;;
22967;SDS011;11650;48.106;-1.696;2023-05-10T14:57:24;10.40;;;2.00;;
22967;SDS011;11650;48.106;-1.696;2023-05-10T14:59:49;7.60;;;2.30;;
22967;SDS011;11650;48.106;-1.696;2023-05-10T15:02:15;10.13;;;2.00;;
22967;SDS011;11650;48.106;-1.696;2023-05-10T15:04:41;7.10;;;2.07;;